sensor_id;sensor_type;location;lat;lon;timestamp;pressure;altitude;pressure_sealevel;temperature;humidity
59170;BME280;52474;52.236;5.114;2023-01-23T00:00:56;103694.91;;;0.79;100.00
59170;BME280;52474;52.236;5.114;2023-01-23T00:03:21;103697.50;;;0.78;100.00
59170;BME280;52474;52.236;5.114;2023-01-23T00:06:08;103680.94;;;0.71;100.00
59170;BME280;52474;52.236;5.114;2023-01-23T00:08:35;103702.69;;;0.81;100.00
59170;BME280;52474;52.236;5.114;2023-01-23T00:11:09;103678.34;;;0.70;100.00
59170;BME280;52474;52.236;5.114;2023-01-23T00:13:36;103692.28;;;0.81;100.00
59170;BME280;52474;52.236;5.114;2023-01-23T00:16:13;103680.97;;;0.77;100.00
59170;BME280;52474;52.236;5.114;2023-01-23T00:18:40;103677.50;;;0.75;100.00
59170;BME280;52474;52.236;5.114;2023-01-23T00:21:08;103680.09;;;0.78;100.00
59170;BME280;52474;52.236;5.114;2023-01-23T00:23:34;103675.75;;;0.73;100.00
59170;BME280;52474;52.236;5.114;2023-01-23T00:26:04;103682.69;;;0.78;100.00
59170;BME280;52474;52.236;5.114;2023-01-23T00:28:31;103681.84;;;0.78;100.00
59170;BME280;52474;52.236;5.114;2023-01-23T00:31:11;103682.69;;;0.78;100.00
59170;BME280;52474;52.236;5.114;2023-01-23T00:33:38;103674.00;;;0.73;100.00
59170;BME280;52474;52.236;5.114;2023-01-23T00:36:04;103689.66;;;0.81;100.00
59170;BME280;52474;52.236;5.114;2023-01-23T00:38:30;103679.25;;;0.79;100.00
59170;BME280;52474;52.236;5.114;2023-01-23T00:40:56;103658.34;;;0.69;100.00
59170;BME280;52474;52.236;5.114;2023-01-23T00:43:23;103666.19;;;0.70;100.00
59170;BME280;52474;52.236;5.114;2023-01-23T00:45:49;103661.84;;;0.68;100.00
59170;BME280;52474;52.236;5.114;2023-01-23T00:48:15;103668.78;;;0.76;100.00
59170;BME280;52474;52.236;5.114;2023-01-23T00:50:42;103652.28;;;0.67;100.00
59170;BME280;52474;52.236;5.114;2023-01-23T00:53:07;103670.53;;;0.77;100.00
59170;BME280;52474;52.236;5.114;2023-01-23T00:55:33;103651.41;;;0.68;100.00
59170;BME280;52474;52.236;5.114;2023-01-23T00:57:59;103652.25;;;0.71;100.00
59170;BME280;52474;52.236;5.114;2023-01-23T01:00:25;103657.50;;;0.73;100.00
59170;BME280;52474;52.236;5.114;2023-01-23T01:02:51;103642.72;;;0.70;100.00
59170;BME280;52474;52.236;5.114;2023-01-23T01:05:17;103648.78;;;0.74;100.00
59170;BME280;52474;52.236;5.114;2023-01-23T01:07:46;103654.00;;;0.74;100.00
59170;BME280;52474;52.236;5.114;2023-01-23T01:10:13;103661.81;;;0.74;100.00
59170;BME280;52474;52.236;5.114;2023-01-23T01:12:39;103667.94;;;0.74;100.00
59170;BME280;52474;52.236;5.114;2023-01-23T01:15:06;103667.03;;;0.74;100.00
59170;BME280;52474;52.236;5.114;2023-01-23T01:17:33;103660.97;;;0.67;100.00
59170;BME280;52474;52.236;5.114;2023-01-23T01:19:58;103671.41;;;0.73;100.00
59170;BME280;52474;52.236;5.114;2023-01-23T01:22:24;103667.91;;;0.71;100.00
59170;BME280;52474;52.236;5.114;2023-01-23T01:24:50;103677.50;;;0.72;100.00
59170;BME280;52474;52.236;5.114;2023-01-23T01:27:16;103680.09;;;0.72;100.00
59170;BME280;52474;52.236;5.114;2023-01-23T01:29:41;103684.44;;;0.73;100.00
59170;BME280;52474;52.236;5.114;2023-01-23T01:32:07;103678.34;;;0.73;100.00
59170;BME280;52474;52.236;5.114;2023-01-23T01:34:32;103673.13;;;0.73;100.00
59170;BME280;52474;52.236;5.114;2023-01-23T01:36:59;103664.44;;;0.69;100.00
59170;BME280;52474;52.236;5.114;2023-01-23T01:39:24;103664.44;;;0.69;100.00
59170;BME280;52474;52.236;5.114;2023-01-23T01:41:50;103673.13;;;0.73;100.00
59170;BME280;52474;52.236;5.114;2023-01-23T01:44:21;103680.97;;;0.73;100.00
59170;BME280;52474;52.236;5.114;2023-01-23T01:46:47;103667.03;;;0.63;100.00
59170;BME280;52474;52.236;5.114;2023-01-23T01:49:18;103663.56;;;0.62;100.00
59170;BME280;52474;52.236;5.114;2023-01-23T01:52:02;103666.16;;;0.66;100.00
59170;BME280;52474;52.236;5.114;2023-01-23T01:54:46;103652.25;;;0.57;100.00
59170;BME280;52474;52.236;5.114;2023-01-23T01:57:45;103685.31;;;0.72;100.00
59170;BME280;52474;52.236;5.114;2023-01-23T02:00:15;103678.34;;;0.73;100.00
59170;BME280;52474;52.236;5.114;2023-01-23T02:02:51;103654.84;;;0.59;100.00
59170;BME280;52474;52.236;5.114;2023-01-23T02:05:21;103689.66;;;0.73;100.00
59170;BME280;52474;52.236;5.114;2023-01-23T02:10:19;103687.94;;;0.72;100.00
59170;BME280;52474;52.236;5.114;2023-01-23T02:12:46;103687.06;;;0.70;100.00
59170;BME280;52474;52.236;5.114;2023-01-23T02:15:12;103687.91;;;0.71;100.00
59170;BME280;52474;52.236;5.114;2023-01-23T02:17:38;103687.06;;;0.70;100.00
59170;BME280;52474;52.236;5.114;2023-01-23T02:20:21;103693.13;;;0.74;100.00
59170;BME280;52474;52.236;5.114;2023-01-23T02:22:57;103696.63;;;0.73;100.00
59170;BME280;52474;52.236;5.114;2023-01-23T02:25:32;103693.13;;;0.71;100.00
59170;BME280;52474;52.236;5.114;2023-01-23T02:28:02;103690.53;;;0.74;100.00
59170;BME280;52474;52.236;5.114;2023-01-23T02:30:33;103698.34;;;0.75;100.00
59170;BME280;52474;52.236;5.114;2023-01-23T02:33:11;103707.03;;;0.76;100.00
59170;BME280;52474;52.236;5.114;2023-01-23T02:35:57;103683.56;;;0.65;100.00
59170;BME280;52474;52.236;5.114;2023-01-23T02:38:27;103695.75;;;0.72;100.00
59170;BME280;52474;52.236;5.114;2023-01-23T02:40:57;103695.72;;;0.74;100.00
59170;BME280;52474;52.236;5.114;2023-01-23T02:43:28;103697.50;;;0.75;100.00
59170;BME280;52474;52.236;5.114;2023-01-23T02:46:02;103700.09;;;0.76;100.00
59170;BME280;52474;52.236;5.114;2023-01-23T02:48:28;103705.31;;;0.75;100.00
59170;BME280;52474;52.236;5.114;2023-01-23T02:50:54;103703.56;;;0.74;100.00
59170;BME280;52474;52.236;5.114;2023-01-23T02:53:20;103689.66;;;0.64;100.00
59170;BME280;52474;52.236;5.114;2023-01-23T02:55:45;103705.31;;;0.78;100.00
59170;BME280;52474;52.236;5.114;2023-01-23T02:58:12;103695.75;;;0.69;100.00
59170;BME280;52474;52.236;5.114;2023-01-23T03:00:56;103704.47;;;0.74;100.00
59170;BME280;52474;52.236;5.114;2023-01-23T03:03:22;103707.94;;;0.78;100.00
59170;BME280;52474;52.236;5.114;2023-01-23T03:05:47;103706.19;;;0.77;100.00
59170;BME280;52474;52.236;5.114;2023-01-23T03:08:15;103707.91;;;0.73;100.00
59170;BME280;52474;52.236;5.114;2023-01-23T03:10:41;103708.81;;;0.77;100.00
59170;BME280;52474;52.236;5.114;2023-01-23T03:13:07;103709.66;;;0.77;100.00
59170;BME280;52474;52.236;5.114;2023-01-23T03:15:37;103700.94;;;0.74;100.00
59170;BME280;52474;52.236;5.114;2023-01-23T03:18:04;103707.91;;;0.76;100.00
59170;BME280;52474;52.236;5.114;2023-01-23T03:20:37;103713.13;;;0.78;100.00
59170;BME280;52474;52.236;5.114;2023-01-23T03:23:03;103717.50;;;0.80;100.00
59170;BME280;52474;52.236;5.114;2023-01-23T03:25:29;103714.91;;;0.79;100.00
59170;BME280;52474;52.236;5.114;2023-01-23T03:27:55;103715.75;;;0.78;100.00
59170;BME280;52474;52.236;5.114;2023-01-23T03:30:21;103689.66;;;0.67;100.00
59170;BME280;52474;52.236;5.114;2023-01-23T03:32:47;103703.56;;;0.74;100.00
59170;BME280;52474;52.236;5.114;2023-01-23T03:35:15;103717.50;;;0.79;100.00
59170;BME280;52474;52.236;5.114;2023-01-23T03:37:42;103719.22;;;0.75;100.00
59170;BME280;52474;52.236;5.114;2023-01-23T03:40:17;103711.38;;;0.71;100.00
59170;BME280;52474;52.236;5.114;2023-01-23T03:43:04;103707.03;;;0.71;100.00
59170;BME280;52474;52.236;5.114;2023-01-23T03:45:30;103724.47;;;0.80;100.00
59170;BME280;52474;52.236;5.114;2023-01-23T03:47:56;103727.94;;;0.82;100.00
59170;BME280;52474;52.236;5.114;2023-01-23T03:50:22;103722.72;;;0.80;100.00
59170;BME280;52474;52.236;5.114;2023-01-23T03:52:48;103729.66;;;0.83;100.00
59170;BME280;52474;52.236;5.114;2023-01-23T03:55:13;103727.06;;;0.83;100.00
59170;BME280;52474;52.236;5.114;2023-01-23T03:57:39;103731.41;;;0.81;100.00
59170;BME280;52474;52.236;5.114;2023-01-23T04:00:08;103738.41;;;0.87;100.00
59170;BME280;52474;52.236;5.114;2023-01-23T04:02:44;103732.28;;;0.86;100.00
59170;BME280;52474;52.236;5.114;2023-01-23T04:05:12;103730.56;;;0.82;100.00
59170;BME280;52474;52.236;5.114;2023-01-23T04:07:37;103727.06;;;0.78;100.00
59170;BME280;52474;52.236;5.114;2023-01-23T04:10:03;103742.72;;;0.88;100.00
59170;BME280;52474;52.236;5.114;2023-01-23T04:12:29;103737.50;;;0.88;100.00
59170;BME280;52474;52.236;5.114;2023-01-23T04:14:55;103736.63;;;0.89;100.00
59170;BME280;52474;52.236;5.114;2023-01-23T04:17:21;103730.56;;;0.88;100.00
59170;BME280;52474;52.236;5.114;2023-01-23T04:19:47;103727.06;;;0.88;100.00
59170;BME280;52474;52.236;5.114;2023-01-23T04:22:13;103734.91;;;0.89;100.00
59170;BME280;52474;52.236;5.114;2023-01-23T04:24:47;103728.81;;;0.89;100.00
59170;BME280;52474;52.236;5.114;2023-01-23T04:27:12;103733.16;;;0.85;100.00
59170;BME280;52474;52.236;5.114;2023-01-23T04:29:38;103730.56;;;0.88;100.00
59170;BME280;52474;52.236;5.114;2023-01-23T04:32:05;103727.06;;;0.88;100.00
59170;BME280;52474;52.236;5.114;2023-01-23T04:34:35;103731.41;;;0.85;100.00
59170;BME280;52474;52.236;5.114;2023-01-23T04:37:00;103730.56;;;0.88;100.00
59170;BME280;52474;52.236;5.114;2023-01-23T04:39:26;103715.75;;;0.79;100.00
59170;BME280;52474;52.236;5.114;2023-01-23T04:41:52;103727.06;;;0.86;100.00
59170;BME280;52474;52.236;5.114;2023-01-23T04:44:36;103704.44;;;0.77;100.00
59170;BME280;52474;52.236;5.114;2023-01-23T04:47:20;103727.09;;;0.89;100.00
59170;BME280;52474;52.236;5.114;2023-01-23T04:49:47;103709.66;;;0.77;100.00
59170;BME280;52474;52.236;5.114;2023-01-23T04:52:13;103728.81;;;0.87;100.00
59170;BME280;52474;52.236;5.114;2023-01-23T04:54:43;103732.28;;;0.88;100.00
59170;BME280;52474;52.236;5.114;2023-01-23T04:57:09;103720.97;;;0.73;100.00
59170;BME280;52474;52.236;5.114;2023-01-23T04:59:35;103740.13;;;0.84;100.00
59170;BME280;52474;52.236;5.114;2023-01-23T05:02:00;103738.38;;;0.79;100.00
59170;BME280;52474;52.236;5.114;2023-01-23T05:04:28;103755.75;;;0.86;100.00
59170;BME280;52474;52.236;5.114;2023-01-23T05:06:54;103755.78;;;0.88;100.00
59170;BME280;52474;52.236;5.114;2023-01-23T05:09:20;103740.97;;;0.76;100.00
59170;BME280;52474;52.236;5.114;2023-01-23T05:11:50;103740.09;;;0.75;100.00
59170;BME280;52474;52.236;5.114;2023-01-23T05:14:16;103746.22;;;0.79;100.00
59170;BME280;52474;52.236;5.114;2023-01-23T05:16:45;103725.31;;;0.70;100.00
59170;BME280;52474;52.236;5.114;2023-01-23T05:19:13;103737.47;;;0.78;100.00
59170;BME280;52474;52.236;5.114;2023-01-23T05:21:39;103751.44;;;0.90;100.00
59170;BME280;52474;52.236;5.114;2023-01-23T05:24:08;103756.66;;;0.91;100.00
59170;BME280;52474;52.236;5.114;2023-01-23T05:26:35;103754.03;;;0.93;100.00
59170;BME280;52474;52.236;5.114;2023-01-23T05:29:01;103749.72;;;0.92;100.00
59170;BME280;52474;52.236;5.114;2023-01-23T05:31:28;103731.41;;;0.79;100.00
59170;BME280;52474;52.236;5.114;2023-01-23T05:34:12;103728.81;;;0.79;100.00
59170;BME280;52474;52.236;5.114;2023-01-23T05:36:39;103747.97;;;0.89;100.00
59170;BME280;52474;52.236;5.114;2023-01-23T05:39:04;103754.06;;;0.91;100.00
59170;BME280;52474;52.236;5.114;2023-01-23T05:41:31;103738.38;;;0.80;100.00
59170;BME280;52474;52.236;5.114;2023-01-23T05:44:15;103741.88;;;0.90;100.00
59170;BME280;52474;52.236;5.114;2023-01-23T05:47:01;103744.47;;;0.89;100.00
59170;BME280;52474;52.236;5.114;2023-01-23T05:49:26;103742.75;;;0.89;100.00
59170;BME280;52474;52.236;5.114;2023-01-23T05:51:53;103734.88;;;0.78;100.00
59170;BME280;52474;52.236;5.114;2023-01-23T05:54:18;103727.03;;;0.71;100.00
59170;BME280;52474;52.236;5.114;2023-01-23T05:56:44;103760.13;;;0.90;100.00
59170;BME280;52474;52.236;5.114;2023-01-23T05:59:29;103762.75;;;0.90;100.00
59170;BME280;52474;52.236;5.114;2023-01-23T06:02:06;103773.19;;;0.90;100.00
59170;BME280;52474;52.236;5.114;2023-01-23T06:05:01;103742.69;;;0.69;100.00
59170;BME280;52474;52.236;5.114;2023-01-23T06:07:43;103756.63;;;0.76;100.00
59170;BME280;52474;52.236;5.114;2023-01-23T06:10:09;103772.31;;;0.90;100.00
59170;BME280;52474;52.236;5.114;2023-01-23T06:12:34;103755.72;;;0.71;100.00
59170;BME280;52474;52.236;5.114;2023-01-23T06:15:00;103763.59;;;0.88;100.00
59170;BME280;52474;52.236;5.114;2023-01-23T06:17:26;103769.69;;;0.90;100.00
59170;BME280;52474;52.236;5.114;2023-01-23T06:19:52;103768.81;;;0.91;100.00
59170;BME280;52474;52.236;5.114;2023-01-23T06:22:19;103776.66;;;0.91;100.00
59170;BME280;52474;52.236;5.114;2023-01-23T06:25:00;103778.41;;;0.90;100.00
59170;BME280;52474;52.236;5.114;2023-01-23T06:27:25;103750.50;;;0.71;100.00
59170;BME280;52474;52.236;5.114;2023-01-23T06:29:51;103786.25;;;0.92;100.00
59170;BME280;52474;52.236;5.114;2023-01-23T06:32:17;103783.63;;;0.87;100.00
59170;BME280;52474;52.236;5.114;2023-01-23T06:34:43;103778.38;;;0.81;100.00
59170;BME280;52474;52.236;5.114;2023-01-23T06:37:09;103767.94;;;0.79;100.00
59170;BME280;52474;52.236;5.114;2023-01-23T06:39:36;103776.66;;;0.84;100.00
59170;BME280;52474;52.236;5.114;2023-01-23T06:42:04;103771.44;;;0.81;100.00
59170;BME280;52474;52.236;5.114;2023-01-23T06:44:36;103781.88;;;0.92;100.00
59170;BME280;52474;52.236;5.114;2023-01-23T06:47:04;103787.97;;;0.93;100.00
59170;BME280;52474;52.236;5.114;2023-01-23T06:49:29;103781.88;;;0.88;100.00
59170;BME280;52474;52.236;5.114;2023-01-23T06:51:56;103773.16;;;0.79;100.00
59170;BME280;52474;52.236;5.114;2023-01-23T06:54:24;103784.50;;;0.92;100.00
59170;BME280;52474;52.236;5.114;2023-01-23T06:56:55;103767.06;;;0.79;100.00
59170;BME280;52474;52.236;5.114;2023-01-23T06:59:21;103787.97;;;0.91;100.00
59170;BME280;52474;52.236;5.114;2023-01-23T07:01:47;103774.91;;;0.79;100.00
59170;BME280;52474;52.236;5.114;2023-01-23T07:04:23;103767.94;;;0.81;100.00
59170;BME280;52474;52.236;5.114;2023-01-23T07:06:50;103786.22;;;0.90;100.00
59170;BME280;52474;52.236;5.114;2023-01-23T07:09:17;103783.63;;;0.90;100.00
59170;BME280;52474;52.236;5.114;2023-01-23T07:11:50;103768.81;;;0.77;100.00
59170;BME280;52474;52.236;5.114;2023-01-23T07:14:15;103792.31;;;0.91;100.00
59170;BME280;52474;52.236;5.114;2023-01-23T07:16:45;103781.00;;;0.82;100.00
59170;BME280;52474;52.236;5.114;2023-01-23T07:19:10;103797.53;;;0.88;100.00
59170;BME280;52474;52.236;5.114;2023-01-23T07:21:38;103794.00;;;0.81;100.00
59170;BME280;52474;52.236;5.114;2023-01-23T07:24:04;103791.41;;;0.81;100.00
59170;BME280;52474;52.236;5.114;2023-01-23T07:26:30;103808.84;;;0.91;100.00
59170;BME280;52474;52.236;5.114;2023-01-23T07:28:55;103808.84;;;0.90;100.00
59170;BME280;52474;52.236;5.114;2023-01-23T07:31:21;103812.34;;;0.92;100.00
59170;BME280;52474;52.236;5.114;2023-01-23T07:33:47;103802.75;;;0.84;100.00
59170;BME280;52474;52.236;5.114;2023-01-23T07:36:13;103810.59;;;0.92;100.00
59170;BME280;52474;52.236;5.114;2023-01-23T07:38:39;103815.81;;;0.95;100.00
59170;BME280;52474;52.236;5.114;2023-01-23T07:41:05;103802.72;;;0.83;100.00
59170;BME280;52474;52.236;5.114;2023-01-23T07:43:31;103822.75;;;0.93;100.00
59170;BME280;52474;52.236;5.114;2023-01-23T07:45:58;103826.25;;;0.89;100.00
59170;BME280;52474;52.236;5.114;2023-01-23T07:48:24;103815.75;;;0.83;100.00
59170;BME280;52474;52.236;5.114;2023-01-23T07:50:50;103841.06;;;0.96;100.00
59170;BME280;52474;52.236;5.114;2023-01-23T07:53:15;103843.66;;;0.96;100.00
59170;BME280;52474;52.236;5.114;2023-01-23T07:55:41;103828.84;;;0.88;100.00
59170;BME280;52474;52.236;5.114;2023-01-23T07:58:07;103834.94;;;0.90;100.00
59170;BME280;52474;52.236;5.114;2023-01-23T08:00:33;103846.25;;;0.98;100.00
59170;BME280;52474;52.236;5.114;2023-01-23T08:02:59;103848.03;;;1.02;100.00
59170;BME280;52474;52.236;5.114;2023-01-23T08:05:25;103836.69;;;1.03;100.00
59170;BME280;52474;52.236;5.114;2023-01-23T08:07:51;103840.19;;;1.02;100.00
59170;BME280;52474;52.236;5.114;2023-01-23T08:10:18;103837.59;;;1.08;100.00
59170;BME280;52474;52.236;5.114;2023-01-23T08:12:44;103847.16;;;1.09;100.00
59170;BME280;52474;52.236;5.114;2023-01-23T08:15:10;103851.50;;;1.13;100.00
59170;BME280;52474;52.236;5.114;2023-01-23T08:17:35;103847.16;;;1.15;100.00
59170;BME280;52474;52.236;5.114;2023-01-23T08:20:02;103851.53;;;1.16;100.00
59170;BME280;52474;52.236;5.114;2023-01-23T08:22:28;103848.91;;;1.15;100.00
59170;BME280;52474;52.236;5.114;2023-01-23T08:24:54;103862.84;;;1.20;100.00
59170;BME280;52474;52.236;5.114;2023-01-23T08:27:19;103860.25;;;1.23;100.00
59170;BME280;52474;52.236;5.114;2023-01-23T08:29:45;103864.63;;;1.28;100.00
59170;BME280;52474;52.236;5.114;2023-01-23T08:32:11;103863.75;;;1.34;100.00
59170;BME280;52474;52.236;5.114;2023-01-23T08:34:36;103865.50;;;1.37;100.00
59170;BME280;52474;52.236;5.114;2023-01-23T08:37:02;103872.47;;;1.47;100.00
59170;BME280;52474;52.236;5.114;2023-01-23T08:39:28;103878.56;;;1.49;100.00
59170;BME280;52474;52.236;5.114;2023-01-23T08:41:54;103883.81;;;1.57;100.00
59170;BME280;52474;52.236;5.114;2023-01-23T08:44:19;103876.84;;;1.62;100.00
59170;BME280;52474;52.236;5.114;2023-01-23T08:46:45;103862.91;;;1.52;100.00
59170;BME280;52474;52.236;5.114;2023-01-23T08:49:11;103875.09;;;1.64;100.00
59170;BME280;52474;52.236;5.114;2023-01-23T08:51:37;103865.53;;;1.74;100.00
59170;BME280;52474;52.236;5.114;2023-01-23T08:54:03;103889.06;;;1.98;100.00
59170;BME280;52474;52.236;5.114;2023-01-23T08:56:29;103872.50;;;1.91;100.00
59170;BME280;52474;52.236;5.114;2023-01-23T08:58:56;103888.19;;;1.98;100.00
59170;BME280;52474;52.236;5.114;2023-01-23T09:01:23;103889.06;;;1.95;100.00
59170;BME280;52474;52.236;5.114;2023-01-23T09:03:50;103876.88;;;1.88;100.00
59170;BME280;52474;52.236;5.114;2023-01-23T09:06:19;103888.19;;;1.93;100.00
59170;BME280;52474;52.236;5.114;2023-01-23T09:08:45;103904.72;;;2.09;100.00
59170;BME280;52474;52.236;5.114;2023-01-23T09:11:12;103905.63;;;2.09;100.00
59170;BME280;52474;52.236;5.114;2023-01-23T09:13:38;103895.16;;;2.08;100.00
59170;BME280;52474;52.236;5.114;2023-01-23T09:16:04;103894.28;;;2.10;100.00
59170;BME280;52474;52.236;5.114;2023-01-23T09:18:30;103881.19;;;2.09;100.00
59170;BME280;52474;52.236;5.114;2023-01-23T09:20:56;103894.25;;;2.17;100.00
59170;BME280;52474;52.236;5.114;2023-01-23T09:23:22;103897.75;;;2.25;100.00
59170;BME280;52474;52.236;5.114;2023-01-23T09:25:48;103885.50;;;2.36;100.00
59170;BME280;52474;52.236;5.114;2023-01-23T09:28:14;103882.00;;;2.43;100.00
59170;BME280;52474;52.236;5.114;2023-01-23T09:30:40;103889.00;;;2.49;100.00
59170;BME280;52474;52.236;5.114;2023-01-23T09:33:06;103897.69;;;2.54;100.00
59170;BME280;52474;52.236;5.114;2023-01-23T09:35:32;103883.75;;;2.52;100.00
59170;BME280;52474;52.236;5.114;2023-01-23T09:37:58;103892.41;;;2.72;100.00
59170;BME280;52474;52.236;5.114;2023-01-23T09:40:36;103901.06;;;2.90;100.00
59170;BME280;52474;52.236;5.114;2023-01-23T09:43:15;103881.72;;;3.17;100.00
59170;BME280;52474;52.236;5.114;2023-01-23T09:45:52;103885.09;;;3.34;100.00
59170;BME280;52474;52.236;5.114;2023-01-23T09:48:47;103888.59;;;3.38;100.00
59170;BME280;52474;52.236;5.114;2023-01-23T09:53:48;103887.59;;;3.57;100.00
59170;BME280;52474;52.236;5.114;2023-01-23T09:56:34;103883.19;;;3.61;100.00
59170;BME280;52474;52.236;5.114;2023-01-23T10:01:35;103879.41;;;3.99;100.00
59170;BME280;52474;52.236;5.114;2023-01-23T10:04:02;103893.16;;;4.22;100.00
59170;BME280;52474;52.236;5.114;2023-01-23T10:06:31;103890.53;;;4.21;100.00
59170;BME280;52474;52.236;5.114;2023-01-23T10:12:01;103885.81;;;4.57;100.00
59170;BME280;52474;52.236;5.114;2023-01-23T10:14:58;103886.63;;;4.62;100.00
59170;BME280;52474;52.236;5.114;2023-01-23T10:20:53;103881.31;;;4.66;100.00
59170;BME280;52474;52.236;5.114;2023-01-23T10:23:34;103867.22;;;4.73;100.00
59170;BME280;52474;52.236;5.114;2023-01-23T10:26:11;103875.31;;;5.25;100.00
59170;BME280;52474;52.236;5.114;2023-01-23T10:28:41;103870.38;;;5.62;100.00
59170;BME280;52474;52.236;5.114;2023-01-23T10:31:22;103872.84;;;5.12;100.00
59170;BME280;52474;52.236;5.114;2023-01-23T10:34:47;103872.84;;;5.71;100.00
59170;BME280;52474;52.236;5.114;2023-01-23T10:39:42;103839.34;;;8.21;100.00
59170;BME280;52474;52.236;5.114;2023-01-23T10:42:10;103850.53;;;8.29;100.00
59170;BME280;52474;52.236;5.114;2023-01-23T10:44:37;103836.44;;;8.30;100.00
59170;BME280;52474;52.236;5.114;2023-01-23T10:47:10;103851.44;;;10.73;100.00
59170;BME280;52474;52.236;5.114;2023-01-23T10:49:43;103848.53;;;10.80;100.00
59170;BME280;52474;52.236;5.114;2023-01-23T10:54:53;103860.94;;;10.79;100.00
59170;BME280;52474;52.236;5.114;2023-01-23T10:57:31;103861.50;;;11.33;100.00
59170;BME280;52474;52.236;5.114;2023-01-23T11:02:34;103844.53;;;14.72;100.00
59170;BME280;52474;52.236;5.114;2023-01-23T11:07:52;103844.22;;;16.29;100.00
59170;BME280;52474;52.236;5.114;2023-01-23T11:10:21;103842.03;;;16.50;100.00
59170;BME280;52474;52.236;5.114;2023-01-23T11:12:50;103846.81;;;14.29;100.00
59170;BME280;52474;52.236;5.114;2023-01-23T11:15:30;103847.34;;;16.93;100.00
59170;BME280;52474;52.236;5.114;2023-01-23T11:17:59;103840.44;;;17.30;100.00
59170;BME280;52474;52.236;5.114;2023-01-23T11:20:36;103837.06;;;18.19;100.00
59170;BME280;52474;52.236;5.114;2023-01-23T11:25:42;103839.75;;;18.07;100.00
59170;BME280;52474;52.236;5.114;2023-01-23T11:36:42;103835.50;;;15.82;100.00
59170;BME280;52474;52.236;5.114;2023-01-23T11:41:42;103839.66;;;17.55;100.00
59170;BME280;52474;52.236;5.114;2023-01-23T11:44:15;103845.56;;;19.13;100.00
59170;BME280;52474;52.236;5.114;2023-01-23T11:47:05;103833.06;;;18.38;100.00
59170;BME280;52474;52.236;5.114;2023-01-23T11:50:02;103833.47;;;17.28;100.00
59170;BME280;52474;52.236;5.114;2023-01-23T12:00:33;103833.59;;;16.70;100.00
59170;BME280;52474;52.236;5.114;2023-01-23T12:05:51;103846.19;;;18.30;97.62
59170;BME280;52474;52.236;5.114;2023-01-23T12:08:42;103842.63;;;16.12;100.00
59170;BME280;52474;52.236;5.114;2023-01-23T12:11:13;103837.75;;;16.47;100.00
59170;BME280;52474;52.236;5.114;2023-01-23T12:22:25;103841.94;;;14.70;100.00
59170;BME280;52474;52.236;5.114;2023-01-23T12:27:48;103823.69;;;14.63;100.00
59170;BME280;52474;52.236;5.114;2023-01-23T12:30:37;103841.41;;;11.90;100.00
59170;BME280;52474;52.236;5.114;2023-01-23T12:41:54;103850.69;;;9.43;100.00
59170;BME280;52474;52.236;5.114;2023-01-23T12:44:37;103859.75;;;8.78;100.00
59170;BME280;52474;52.236;5.114;2023-01-23T12:47:15;103846.38;;;9.12;100.00
59170;BME280;52474;52.236;5.114;2023-01-23T12:49:52;103857.13;;;9.62;100.00
59170;BME280;52474;52.236;5.114;2023-01-23T12:52:26;103853.41;;;7.87;100.00
59170;BME280;52474;52.236;5.114;2023-01-23T12:55:00;103863.50;;;8.05;100.00
59170;BME280;52474;52.236;5.114;2023-01-23T12:57:29;103835.16;;;7.79;100.00
59170;BME280;52474;52.236;5.114;2023-01-23T13:05:36;103829.53;;;8.57;100.00
59170;BME280;52474;52.236;5.114;2023-01-23T13:08:25;103846.50;;;11.74;100.00
59170;BME280;52474;52.236;5.114;2023-01-23T13:11:14;103845.69;;;11.52;100.00
59170;BME280;52474;52.236;5.114;2023-01-23T13:13:59;103847.09;;;13.37;100.00
59170;BME280;52474;52.236;5.114;2023-01-23T13:16:27;103853.03;;;15.10;100.00
59170;BME280;52474;52.236;5.114;2023-01-23T13:18:59;103849.47;;;12.86;100.00
59170;BME280;52474;52.236;5.114;2023-01-23T13:22:24;103856.47;;;13.27;100.00
59170;BME280;52474;52.236;5.114;2023-01-23T13:24:52;103837.63;;;13.84;100.00
59170;BME280;52474;52.236;5.114;2023-01-23T13:27:53;103856.44;;;9.01;100.00
59170;BME280;52474;52.236;5.114;2023-01-23T13:32:52;103853.66;;;6.62;100.00
59170;BME280;52474;52.236;5.114;2023-01-23T13:52:17;103832.59;;;5.12;100.00
59170;BME280;52474;52.236;5.114;2023-01-23T13:55:14;103829.06;;;5.14;100.00
59170;BME280;52474;52.236;5.114;2023-01-23T13:58:00;103819.75;;;4.89;100.00
59170;BME280;52474;52.236;5.114;2023-01-23T14:00:28;103817.59;;;4.52;100.00
59170;BME280;52474;52.236;5.114;2023-01-23T14:02:59;103786.38;;;4.32;100.00
59170;BME280;52474;52.236;5.114;2023-01-23T14:05:45;103801.91;;;4.47;100.00
59170;BME280;52474;52.236;5.114;2023-01-23T14:08:17;103788.94;;;4.35;100.00
59170;BME280;52474;52.236;5.114;2023-01-23T14:10:47;103797.63;;;4.43;100.00
59170;BME280;52474;52.236;5.114;2023-01-23T14:13:18;103795.09;;;4.34;100.00
59170;BME280;52474;52.236;5.114;2023-01-23T14:15:48;103799.63;;;4.21;100.00
59170;BME280;52474;52.236;5.114;2023-01-23T14:18:42;103794.38;;;4.21;100.00
59170;BME280;52474;52.236;5.114;2023-01-23T14:21:21;103802.34;;;4.12;100.00
59170;BME280;52474;52.236;5.114;2023-01-23T14:23:52;103813.72;;;4.11;100.00
59170;BME280;52474;52.236;5.114;2023-01-23T14:26:23;103817.28;;;4.04;100.00
59170;BME280;52474;52.236;5.114;2023-01-23T14:28:51;103819.97;;;3.99;100.00
59170;BME280;52474;52.236;5.114;2023-01-23T14:31:31;103825.28;;;3.92;100.00
59170;BME280;52474;52.236;5.114;2023-01-23T14:34:03;103829.72;;;3.82;100.00
59170;BME280;52474;52.236;5.114;2023-01-23T14:36:31;103810.72;;;3.57;100.00
59170;BME280;52474;52.236;5.114;2023-01-23T14:38:59;103834.25;;;3.64;100.00
59170;BME280;52474;52.236;5.114;2023-01-23T14:41:28;103826.41;;;3.64;100.00